createdAt,value
2019-05-28T00:01:53.236Z,93.34
2019-05-28T00:04:43.484Z,91.84
2019-05-28T00:07:33.862Z,90.27
2019-05-28T00:10:24.167Z,89.46
2019-05-28T00:13:14.639Z,88.77
2019-05-28T00:16:09.763Z,88.06
2019-05-28T00:18:57.912Z,87.49
2019-05-28T00:21:48.269Z,86.34
2019-05-28T00:24:38.576Z,86.22
2019-05-28T00:27:28.915Z,85.75
2019-05-28T00:30:21.047Z,85.19
2019-05-28T00:33:11.810Z,84.43
2019-05-28T00:36:02.176Z,83.98
2019-05-28T00:38:52.540Z,83.03
2019-05-28T00:41:42.891Z,81.52
2019-05-28T00:44:33.180Z,81.12
2019-05-28T00:47:23.527Z,80.39
2019-05-28T00:50:13.740Z,79.71
2019-05-28T00:53:04.082Z,79.51
2019-05-28T00:55:54.359Z,80.05
2019-05-28T00:58:44.660Z,79.79
2019-05-28T01:01:35.092Z,79.88
2019-05-28T01:04:25.662Z,79.55
2019-05-28T01:07:16.113Z,78.74
2019-05-28T01:10:07.098Z,78.65
2019-05-28T01:12:58.336Z,78.17
2019-05-28T01:15:48.711Z,76.79
2019-05-28T01:18:39.062Z,77.09
2019-05-28T01:21:29.359Z,78.37
2019-05-28T01:24:19.421Z,79.83
2019-05-28T01:27:09.498Z,80.31
2019-05-28T01:29:59.789Z,79.53
2019-05-28T01:32:51.375Z,78.31
2019-05-28T01:35:41.848Z,77.62
2019-05-28T01:38:32.119Z,77.30
2019-05-28T01:41:22.489Z,77.15
2019-05-28T01:44:12.752Z,76.85
2019-05-28T01:47:02.976Z,76.38
2019-05-28T01:49:53.291Z,75.83
2019-05-28T01:52:43.569Z,74.68
2019-05-28T01:55:33.675Z,73.91
2019-05-28T01:58:24.087Z,74.27
2019-05-28T02:01:14.213Z,73.31
2019-05-28T02:04:04.372Z,72.35
2019-05-28T02:06:54.590Z,72.73
2019-05-28T02:09:44.624Z,72.18
2019-05-28T02:12:34.802Z,70.67
2019-05-28T02:15:25.279Z,68.20
2019-05-28T02:18:15.608Z,67.95
2019-05-28T02:21:05.770Z,67.50
2019-05-28T02:23:55.764Z,66.28
2019-05-28T02:26:46.112Z,66.67
2019-05-28T02:29:36.498Z,67.21
2019-05-28T02:32:26.631Z,68.54
2019-05-28T02:35:16.989Z,69.92
2019-05-28T02:38:07.163Z,69.88
2019-05-28T02:40:57.459Z,70.94
2019-05-28T02:43:47.706Z,71.84
2019-05-28T02:46:37.987Z,71.25
2019-05-28T02:49:28.188Z,71.29
2019-05-28T02:52:18.552Z,70.58
2019-05-28T02:55:09.139Z,69.62
2019-05-28T02:57:59.255Z,74.33
2019-05-28T03:00:50.028Z,87.08
2019-05-28T03:03:40.687Z,86.79
2019-05-28T03:06:30.926Z,82.75
2019-05-28T03:09:20.965Z,82.83
2019-05-28T03:12:11.263Z,80.74
2019-05-28T03:15:01.320Z,81.31
2019-05-28T03:17:52.607Z,83.79
2019-05-28T03:20:42.630Z,85.19
2019-05-28T03:23:33.079Z,86.66
2019-05-28T03:26:23.850Z,85.12
2019-05-28T03:29:14.371Z,85.86
2019-05-28T03:32:08.779Z,85.38
2019-05-28T03:34:56.767Z,82.61
2019-05-28T03:37:46.989Z,82.36
2019-05-28T03:40:44.175Z,83.32
2019-05-28T03:43:34.462Z,83.21
2019-05-28T03:46:24.606Z,82.50
2019-05-28T03:49:14.738Z,79.91
2019-05-28T03:52:04.838Z,79.26
2019-05-28T03:54:55.129Z,78.38
2019-05-28T03:57:45.046Z,79.83
2019-05-28T04:00:35.324Z,79.27
2019-05-28T04:03:25.543Z,79.40
2019-05-28T04:06:15.816Z,79.38
2019-05-28T04:09:08.801Z,77.99
2019-05-28T04:12:03.141Z,77.22
2019-05-28T04:14:54.589Z,76.31
2019-05-28T04:17:44.931Z,75.36
2019-05-28T04:20:35.135Z,74.78
2019-05-28T04:23:25.196Z,75.35
2019-05-28T04:26:15.539Z,75.25
2019-05-28T04:29:06.400Z,73.10
2019-05-28T04:31:56.803Z,69.77
2019-05-28T04:34:47.361Z,68.51
2019-05-28T04:37:38.123Z,66.29
2019-05-28T04:40:28.959Z,63.71
2019-05-28T04:43:19.764Z,63.05
2019-05-28T04:46:10.409Z,61.91
2019-05-28T04:49:01.182Z,59.43
2019-05-28T04:51:52.016Z,56.81
2019-05-28T04:54:42.847Z,54.05
2019-05-28T04:57:33.792Z,51.31
2019-05-28T05:00:24.587Z,50.67
2019-05-28T05:03:15.633Z,51.32
2019-05-28T05:06:06.634Z,48.40
2019-05-28T05:08:57.675Z,47.88
2019-05-28T05:11:48.681Z,46.75
2019-05-28T05:14:39.479Z,46.28
2019-05-28T05:17:30.261Z,44.65
2019-05-28T05:20:21.066Z,44.23
2019-05-28T05:23:11.593Z,44.54
2019-05-28T05:26:02.940Z,42.01
2019-05-28T05:28:53.562Z,40.73
2019-05-28T05:31:44.182Z,41.35
2019-05-28T05:34:34.768Z,41.99
2019-05-28T05:37:25.493Z,41.79
2019-05-28T05:40:16.911Z,40.72
2019-05-28T05:43:07.533Z,42.09
2019-05-28T05:45:58.286Z,41.43
2019-05-28T05:48:49.312Z,41.43
2019-05-28T05:51:40.329Z,41.31
2019-05-28T05:54:31.438Z,39.96
2019-05-28T05:57:22.495Z,39.93
2019-05-28T06:00:13.528Z,38.31
2019-05-28T06:03:04.326Z,37.38
2019-05-28T06:05:55.111Z,36.82
2019-05-28T06:08:45.930Z,34.53
2019-05-28T06:11:36.532Z,32.97
2019-05-28T06:14:27.006Z,33.57
2019-05-28T06:17:17.395Z,33.10
2019-05-28T06:20:08.404Z,34.06
2019-05-28T06:22:59.047Z,33.79
2019-05-28T06:25:49.260Z,33.28
2019-05-28T06:28:39.840Z,33.53
2019-05-28T06:31:30.492Z,33.50
2019-05-28T06:34:21.281Z,33.23
2019-05-28T06:37:11.579Z,33.05
2019-05-28T06:40:01.800Z,33.27
2019-05-28T06:42:52.310Z,31.52
2019-05-28T06:45:42.679Z,31.81
2019-05-28T06:48:33.240Z,30.37
2019-05-28T06:51:23.819Z,31.87
2019-05-28T06:54:14.179Z,31.02
2019-05-28T06:57:21.557Z,29.24
2019-05-28T06:59:56.696Z,31.87
2019-05-28T07:02:47.367Z,30.59
2019-05-28T07:05:38.084Z,28.40
2019-05-28T07:08:28.564Z,27.00
2019-05-28T07:11:20.034Z,28.65
2019-05-28T07:14:10.508Z,27.94
2019-05-28T07:17:01.488Z,28.44
2019-05-28T07:19:52.151Z,29.59
2019-05-28T07:22:42.554Z,29.25
2019-05-28T07:25:32.804Z,29.97
2019-05-28T07:28:23.335Z,29.62
2019-05-28T07:31:14.012Z,29.46
2019-05-28T07:34:04.576Z,27.94
2019-05-28T07:36:55.222Z,28.37
2019-05-28T07:39:45.747Z,27.47
2019-05-28T07:42:36.253Z,27.56
2019-05-28T07:45:26.727Z,29.61
2019-05-28T07:48:17.281Z,29.53
2019-05-28T07:51:07.738Z,29.59
2019-05-28T07:53:58.094Z,28.99
2019-05-28T07:56:48.640Z,29.89
2019-05-28T07:59:39.309Z,30.58
2019-05-28T08:02:30.115Z,32.91
2019-05-28T08:05:20.962Z,38.63
2019-05-28T08:08:11.729Z,38.63
2019-05-28T08:11:02.429Z,41.60
2019-05-28T08:13:53.366Z,42.56
2019-05-28T08:16:52.347Z,46.02
2019-05-28T08:19:37.364Z,48.01
2019-05-28T08:22:41.580Z,51.36
2019-05-28T08:25:41.471Z,50.48
2019-05-28T08:28:19.764Z,51.16
2019-05-28T08:31:15.425Z,54.43
2019-05-28T08:33:57.462Z,53.63
2019-05-28T08:37:04.324Z,52.50
2019-05-28T08:39:40.885Z,51.88
2019-05-28T08:42:31.820Z,49.54
2019-05-28T08:45:22.834Z,51.76
2019-05-28T08:48:13.984Z,50.38
2019-05-28T08:51:04.730Z,49.20
2019-05-28T08:53:55.777Z,46.54
2019-05-28T08:56:46.547Z,47.06
2019-05-28T08:59:37.102Z,45.79
2019-05-28T09:02:28.930Z,48.68
2019-05-28T09:05:26.467Z,49.98
2019-05-28T09:08:12.048Z,45.48
2019-05-28T09:11:02.860Z,45.15
2019-05-28T09:13:54.010Z,46.09
2019-05-28T09:16:44.797Z,45.58
2019-05-28T09:19:35.417Z,42.74
2019-05-28T09:22:26.638Z,43.20
2019-05-28T09:25:17.765Z,44.51
2019-05-28T09:28:08.600Z,48.33
2019-05-28T09:30:59.258Z,48.16
2019-05-28T09:33:50.096Z,45.32
2019-05-28T09:36:41.014Z,47.40
2019-05-28T09:39:31.945Z,46.09
2019-05-28T09:42:23.216Z,57.68
2019-05-28T09:45:22.362Z,52.34
2019-05-28T09:48:06.971Z,55.66
2019-05-28T09:50:57.698Z,55.25
2019-05-28T09:53:48.590Z,49.39
2019-05-28T09:56:39.307Z,47.62
2019-05-28T09:59:41.021Z,51.73
2019-05-28T10:02:22.890Z,55.20
2019-05-28T10:05:13.745Z,57.82
2019-05-28T10:08:04.552Z,57.93
2019-05-28T10:10:55.167Z,57.88
2019-05-28T10:13:46.667Z,53.70
2019-05-28T10:16:37.601Z,52.21
2019-05-28T10:19:28.426Z,58.19
2019-05-28T10:22:19.354Z,57.25
2019-05-28T10:25:09.966Z,54.66
2019-05-28T10:28:01.921Z,62.46
2019-05-28T10:30:52.753Z,56.08
2019-05-28T10:33:43.810Z,52.00
2019-05-28T10:36:37.191Z,57.28
2019-05-28T10:39:27.160Z,51.96
2019-05-28T10:42:18.077Z,53.09
2019-05-28T10:45:09.532Z,54.78
2019-05-28T10:48:01.336Z,52.33
2019-05-28T10:50:52.425Z,53.49
2019-05-28T10:53:43.336Z,46.85
2019-05-28T10:56:34.025Z,44.01
2019-05-28T10:59:24.792Z,39.81
2019-05-28T11:02:15.535Z,38.55
2019-05-28T11:05:06.990Z,40.46
2019-05-28T11:07:57.850Z,39.71
2019-05-28T11:10:48.475Z,40.90
2019-05-28T11:13:52.481Z,42.64
2019-05-28T11:16:31.434Z,46.22
2019-05-28T11:19:22.464Z,50.02
2019-05-28T11:22:13.050Z,58.08
2019-05-28T11:25:03.974Z,48.34
2019-05-28T11:27:54.833Z,57.54
2019-05-28T11:30:45.567Z,53.80
2019-05-28T11:33:38.139Z,41.76
2019-05-28T11:36:28.740Z,47.67
2019-05-28T11:39:19.668Z,57.44
2019-05-28T11:42:10.596Z,50.01
2019-05-28T11:45:01.770Z,60.37
2019-05-28T11:47:52.851Z,50.87
2019-05-28T11:50:43.746Z,52.05
2019-05-28T11:53:36.751Z,64.82
2019-05-28T11:56:26.977Z,72.61
2019-05-28T11:59:17.672Z,75.15
2019-05-28T12:02:08.132Z,78.78
2019-05-28T12:04:59.066Z,54.64
2019-05-28T12:07:51.796Z,69.27
2019-05-28T12:10:42.644Z,74.75
2019-05-28T12:13:33.252Z,55.54
2019-05-28T12:16:24.185Z,44.52
2019-05-28T12:19:14.948Z,42.88
2019-05-28T12:22:06.151Z,41.30
2019-05-28T12:24:57.034Z,41.09
2019-05-28T12:27:48.145Z,39.33
2019-05-28T12:30:38.727Z,41.35
2019-05-28T12:33:29.648Z,40.73
2019-05-28T12:36:21.583Z,40.38
2019-05-28T12:39:12.568Z,39.34
2019-05-28T12:42:07.133Z,38.97
2019-05-28T12:45:08.812Z,37.06
2019-05-28T12:48:07.521Z,36.67
2019-05-28T12:50:41.388Z,37.74
2019-05-28T12:53:49.178Z,37.07
2019-05-28T12:56:24.811Z,37.10
2019-05-28T12:59:15.704Z,36.17
2019-05-28T13:02:06.717Z,37.71
2019-05-28T13:04:57.821Z,34.99
2019-05-28T13:08:06.266Z,37.41
2019-05-28T13:10:41.205Z,37.36
2019-05-28T13:13:32.303Z,36.24
2019-05-28T13:16:22.835Z,38.62
2019-05-28T13:19:13.849Z,39.39
2019-05-28T13:22:04.595Z,37.92
2019-05-28T13:24:55.330Z,36.90
2019-05-28T13:27:46.096Z,35.83
2019-05-28T13:30:37.090Z,37.52
2019-05-28T13:33:27.702Z,38.43
2019-05-28T13:36:18.525Z,37.96
2019-05-28T13:39:09.411Z,38.29
2019-05-28T13:42:00.297Z,38.21
2019-05-28T13:44:51.248Z,38.60
2019-05-28T13:47:41.867Z,39.08
2019-05-28T13:50:32.813Z,39.58
2019-05-28T13:53:23.554Z,39.39
2019-05-28T13:56:14.121Z,38.94
2019-05-28T13:59:04.785Z,38.78
2019-05-28T14:01:55.581Z,39.32
2019-05-28T14:04:46.486Z,40.34
2019-05-28T14:07:37.714Z,41.61
2019-05-28T14:10:28.577Z,40.97
2019-05-28T14:13:19.086Z,41.01
2019-05-28T14:16:09.934Z,41.30
2019-05-28T14:19:00.735Z,41.81
2019-05-28T14:21:51.622Z,40.98
2019-05-28T14:24:42.483Z,40.94
2019-05-28T14:27:33.574Z,41.98
2019-05-28T14:30:24.225Z,52.86
2019-05-28T14:33:15.341Z,66.12
2019-05-28T14:36:06.509Z,68.60
2019-05-28T14:39:03.181Z,68.41
2019-05-28T14:41:49.796Z,69.81
2019-05-28T14:44:43.234Z,67.80
2019-05-28T14:47:33.289Z,67.23
2019-05-28T14:50:24.300Z,67.94
2019-05-28T14:53:15.079Z,71.09
2019-05-28T14:56:05.924Z,73.76
2019-05-28T14:58:57.763Z,70.41
2019-05-28T15:01:48.622Z,71.43
2019-05-28T15:04:39.163Z,57.16
2019-05-28T15:07:29.973Z,50.14
2019-05-28T15:10:20.494Z,48.92
2019-05-28T15:13:11.093Z,48.51
2019-05-28T15:16:01.903Z,48.60
2019-05-28T15:18:52.572Z,48.37
2019-05-28T15:21:43.174Z,47.68
2019-05-28T15:24:34.133Z,45.72
2019-05-28T15:27:24.792Z,47.05
2019-05-28T15:30:18.340Z,46.95
2019-05-28T15:33:08.970Z,48.16
2019-05-28T15:35:59.961Z,47.58
2019-05-28T15:38:50.918Z,48.57
2019-05-28T15:41:44.376Z,47.40
2019-05-28T15:44:35.364Z,48.83
2019-05-28T15:47:26.316Z,47.42
2019-05-28T15:50:17.169Z,50.78
2019-05-28T15:53:07.872Z,51.66
2019-05-28T15:55:58.617Z,51.09
2019-05-28T15:58:49.289Z,52.09
2019-05-28T16:01:40.221Z,52.16
2019-05-28T16:04:31.093Z,52.36
2019-05-28T16:07:21.851Z,53.51
2019-05-28T16:10:12.728Z,54.49
2019-05-28T16:13:03.296Z,53.51
2019-05-28T16:15:54.215Z,55.56
2019-05-28T16:18:45.016Z,55.37
2019-05-28T16:21:35.748Z,55.71
2019-05-28T16:24:26.982Z,55.48
2019-05-28T16:27:17.768Z,56.71
2019-05-28T16:30:08.824Z,55.92
2019-05-28T16:33:00.355Z,55.13
2019-05-28T16:35:51.094Z,55.89
2019-05-28T16:38:41.933Z,56.08
2019-05-28T16:41:32.464Z,55.79
2019-05-28T16:44:23.058Z,56.34
2019-05-28T16:47:18.098Z,56.82
2019-05-28T16:50:06.352Z,58.13
2019-05-28T16:52:57.086Z,58.35
2019-05-28T16:55:47.949Z,58.07
2019-05-28T16:58:38.809Z,57.48
2019-05-28T17:01:29.184Z,58.47
2019-05-28T17:04:19.947Z,58.55
2019-05-28T17:07:10.686Z,58.56
2019-05-28T17:10:01.425Z,56.95
2019-05-28T17:12:51.395Z,58.04
2019-05-28T17:15:41.615Z,57.64
2019-05-28T17:18:32.162Z,58.13
2019-05-28T17:21:23.289Z,59.40
2019-05-28T17:24:14.704Z,59.65
2019-05-28T17:27:05.023Z,59.68
2019-05-28T17:30:15.460Z,60.48
2019-05-28T17:32:47.118Z,62.04
2019-05-28T17:35:37.577Z,63.16
2019-05-28T17:38:27.761Z,64.47
2019-05-28T17:41:19.976Z,65.27
2019-05-28T17:44:09.716Z,65.05
2019-05-28T17:47:00.099Z,63.12
2019-05-28T17:49:50.588Z,62.41
2019-05-28T17:52:40.685Z,62.40
2019-05-28T17:55:31.993Z,62.85
2019-05-28T17:58:22.269Z,62.09
2019-05-28T18:01:12.513Z,62.20
2019-05-28T18:04:02.761Z,63.61
2019-05-28T18:06:53.015Z,63.60
2019-05-28T18:09:43.332Z,64.40
2019-05-28T18:12:33.422Z,64.63
2019-05-28T18:15:23.567Z,63.75
2019-05-28T18:18:14.088Z,63.44
2019-05-28T18:21:04.531Z,64.01
2019-05-28T18:23:54.781Z,64.90
2019-05-28T18:26:45.083Z,65.51
2019-05-28T18:29:35.231Z,65.92
2019-05-28T18:32:25.515Z,66.70
2019-05-28T18:35:15.747Z,66.94
2019-05-28T18:38:06.093Z,66.91
2019-05-28T18:40:56.446Z,68.15
2019-05-28T18:43:46.720Z,69.25
2019-05-28T18:46:37.197Z,69.66
2019-05-28T18:49:27.696Z,69.97
2019-05-28T18:52:19.014Z,70.60
2019-05-28T18:55:09.316Z,71.36
2019-05-28T18:57:59.357Z,70.87
2019-05-28T19:00:49.341Z,72.09
2019-05-28T19:03:39.613Z,72.64
2019-05-28T19:06:30.018Z,72.99
2019-05-28T19:09:20.291Z,74.00
2019-05-28T19:12:10.417Z,74.11
2019-05-28T19:15:00.907Z,75.29
2019-05-28T19:17:52.266Z,75.54
2019-05-28T19:20:42.647Z,75.81
2019-05-28T19:23:33.030Z,76.09
2019-05-28T19:26:23.218Z,76.36
2019-05-28T19:29:13.254Z,77.01
2019-05-28T19:32:03.418Z,77.18
2019-05-28T19:34:53.724Z,76.89
2019-05-28T19:37:43.668Z,77.30
2019-05-28T19:40:36.534Z,77.40
2019-05-28T19:43:27.040Z,75.37
2019-05-28T19:46:17.143Z,74.99
2019-05-28T19:49:07.159Z,73.60
2019-05-28T19:51:57.655Z,70.64
2019-05-28T19:54:47.672Z,71.65
2019-05-28T19:57:37.862Z,75.23
2019-05-28T20:00:28.099Z,76.90
2019-05-28T20:03:18.333Z,77.57
2019-05-28T20:06:08.626Z,78.14
2019-05-28T20:08:58.707Z,78.96
2019-05-28T20:11:48.677Z,79.18
2019-05-28T20:14:38.822Z,78.71
2019-05-28T20:17:29.243Z,78.79
2019-05-28T20:20:19.380Z,78.33
2019-05-28T20:23:09.654Z,78.35
2019-05-28T20:25:59.916Z,78.80
2019-05-28T20:29:05.317Z,79.46
2019-05-28T20:31:41.732Z,80.57
2019-05-28T20:34:31.763Z,80.91
2019-05-28T20:37:22.023Z,80.99
2019-05-28T20:40:12.359Z,82.21
2019-05-28T20:43:04.152Z,82.55
2019-05-28T20:45:54.299Z,82.46
2019-05-28T20:48:44.768Z,85.31
2019-05-28T20:51:35.153Z,83.58
2019-05-28T20:54:25.408Z,86.45
2019-05-28T20:57:15.725Z,89.43
2019-05-28T21:00:06.836Z,88.87
2019-05-28T21:02:57.831Z,88.60
2019-05-28T21:05:48.472Z,88.29
2019-05-28T21:08:38.825Z,86.87
2019-05-28T21:11:29.231Z,84.46
2019-05-28T21:14:19.627Z,80.76
2019-05-28T21:17:09.987Z,74.20
2019-05-28T21:20:00.288Z,74.56
2019-05-28T21:22:51.785Z,74.08
2019-05-28T21:25:43.292Z,75.77
2019-05-28T21:28:34.482Z,74.69
2019-05-28T21:31:25.084Z,74.36
2019-05-28T21:34:15.349Z,73.80
2019-05-28T21:37:05.866Z,73.90
2019-05-28T21:39:57.359Z,73.61
2019-05-28T21:42:59.383Z,73.88
2019-05-28T21:45:39.653Z,73.96
2019-05-28T21:48:29.928Z,74.29
2019-05-28T21:51:19.954Z,73.08
2019-05-28T21:54:10.005Z,73.18
2019-05-28T21:56:59.975Z,71.31
2019-05-28T21:59:50.554Z,69.80
2019-05-28T22:02:40.911Z,66.99
2019-05-28T22:05:31.204Z,64.64
2019-05-28T22:08:21.367Z,65.37
2019-05-28T22:11:11.604Z,63.26
2019-05-28T22:14:02.208Z,59.23
2019-05-28T22:16:52.630Z,58.99
2019-05-28T22:19:42.900Z,58.15
2019-05-28T22:22:33.143Z,57.08
2019-05-28T22:25:23.465Z,56.69
2019-05-28T22:28:13.848Z,56.37
2019-05-28T22:31:04.261Z,55.84
2019-05-28T22:33:54.602Z,54.90
2019-05-28T22:36:44.835Z,53.68
2019-05-28T22:39:34.983Z,51.96
2019-05-28T22:42:25.000Z,51.25
2019-05-28T22:45:15.197Z,50.48
2019-05-28T22:48:07.578Z,50.46
2019-05-28T22:50:57.373Z,49.90
2019-05-28T22:53:47.443Z,50.95
2019-05-28T22:56:37.710Z,51.30
2019-05-28T22:59:28.008Z,52.09
2019-05-28T23:02:18.409Z,51.23
2019-05-28T23:05:09.311Z,52.64
2019-05-28T23:07:59.621Z,52.88
2019-05-28T23:10:49.885Z,52.32
2019-05-28T23:13:46.885Z,52.43
2019-05-28T23:16:31.678Z,52.26
2019-05-28T23:19:21.942Z,52.63
2019-05-28T23:22:12.188Z,53.67
2019-05-28T23:25:03.300Z,53.65
2019-05-28T23:27:53.672Z,54.04
2019-05-28T23:30:44.074Z,54.03
2019-05-28T23:33:35.456Z,54.71
2019-05-28T23:36:25.707Z,54.64
2019-05-28T23:39:16.102Z,56.06
2019-05-28T23:42:07.268Z,57.59
2019-05-28T23:44:57.592Z,58.73
2019-05-28T23:47:47.775Z,59.45
2019-05-28T23:50:38.060Z,59.95
2019-05-28T23:53:28.334Z,60.10
2019-05-28T23:56:18.561Z,61.20
2019-05-28T23:59:09.765Z,61.94
